sensor_id;sensor_type;location;lat;lon;timestamp;pressure;altitude;pressure_sealevel;temperature;humidity
77112;BME280;66064;50.226;14.344;2023-04-15T00:01:27;98122.97;;;7.02;95.15
77112;BME280;66064;50.226;14.344;2023-04-15T00:03:54;98130.03;;;7.03;95.25
77112;BME280;66064;50.226;14.344;2023-04-15T00:06:20;98133.56;;;7.06;95.42
77112;BME280;66064;50.226;14.344;2023-04-15T00:08:47;98125.63;;;7.15;95.00
77112;BME280;66064;50.226;14.344;2023-04-15T00:11:15;98114.16;;;7.10;94.88
77112;BME280;66064;50.226;14.344;2023-04-15T00:13:42;98124.75;;;7.10;95.05
77112;BME280;66064;50.226;14.344;2023-04-15T00:16:09;98112.38;;;7.02;94.84
77112;BME280;66064;50.226;14.344;2023-04-15T00:18:36;98119.44;;;7.05;95.10
77112;BME280;66064;50.226;14.344;2023-04-15T00:21:02;98116.78;;;7.02;95.24
77112;BME280;66064;50.226;14.344;2023-04-15T00:23:29;98112.38;;;7.02;94.75
77112;BME280;66064;50.226;14.344;2023-04-15T00:25:55;98112.38;;;7.02;94.50
77112;BME280;66064;50.226;14.344;2023-04-15T00:28:21;98109.75;;;7.06;94.32
77112;BME280;66064;50.226;14.344;2023-04-15T00:30:47;98106.22;;;7.00;94.66
77112;BME280;66064;50.226;14.344;2023-04-15T00:33:13;98108.88;;;6.97;94.91
77112;BME280;66064;50.226;14.344;2023-04-15T00:35:41;98103.59;;;6.96;95.11
77112;BME280;66064;50.226;14.344;2023-04-15T00:38:07;98107.13;;;6.98;95.12
77112;BME280;66064;50.226;14.344;2023-04-15T00:40:33;98101.81;;;7.01;94.76
77112;BME280;66064;50.226;14.344;2023-04-15T00:43:00;98106.22;;;7.03;95.30
77112;BME280;66064;50.226;14.344;2023-04-15T00:45:27;98107.97;;;7.05;95.20
77112;BME280;66064;50.226;14.344;2023-04-15T00:47:53;98105.34;;;7.03;94.91
77112;BME280;66064;50.226;14.344;2023-04-15T00:50:20;98101.81;;;7.09;95.24
77112;BME280;66064;50.226;14.344;2023-04-15T00:52:46;98099.19;;;7.09;95.36
77112;BME280;66064;50.226;14.344;2023-04-15T00:55:12;98099.16;;;7.01;94.87
77112;BME280;66064;50.226;14.344;2023-04-15T00:57:39;98093.88;;;6.99;95.16
77112;BME280;66064;50.226;14.344;2023-04-15T01:00:06;98088.59;;;6.95;95.33
77112;BME280;66064;50.226;14.344;2023-04-15T01:02:36;98080.66;;;6.93;95.66
77112;BME280;66064;50.226;14.344;2023-04-15T01:05:04;98078.91;;;6.95;95.74
77112;BME280;66064;50.226;14.344;2023-04-15T01:07:30;98079.78;;;6.94;95.38
77112;BME280;66064;50.226;14.344;2023-04-15T01:09:57;98086.81;;;6.94;95.85
77112;BME280;66064;50.226;14.344;2023-04-15T01:12:25;98081.53;;;6.92;95.73
77112;BME280;66064;50.226;14.344;2023-04-15T01:14:52;98083.31;;;6.98;95.54
77112;BME280;66064;50.226;14.344;2023-04-15T01:17:18;98080.66;;;6.93;95.77
77112;BME280;66064;50.226;14.344;2023-04-15T01:19:45;98078.00;;;6.87;95.76
77112;BME280;66064;50.226;14.344;2023-04-15T01:22:11;98081.53;;;6.89;95.96
77112;BME280;66064;50.226;14.344;2023-04-15T01:24:37;98092.09;;;6.89;95.74
77112;BME280;66064;50.226;14.344;2023-04-15T01:27:04;98080.66;;;6.90;96.11
77112;BME280;66064;50.226;14.344;2023-04-15T01:29:31;98086.81;;;6.91;96.07
77112;BME280;66064;50.226;14.344;2023-04-15T01:31:58;98083.28;;;6.89;95.45
77112;BME280;66064;50.226;14.344;2023-04-15T01:34:23;98082.41;;;6.91;95.44
77112;BME280;66064;50.226;14.344;2023-04-15T01:36:49;98086.84;;;6.97;96.09
77112;BME280;66064;50.226;14.344;2023-04-15T01:39:15;98075.38;;;6.93;95.71
77112;BME280;66064;50.226;14.344;2023-04-15T01:41:41;98071.81;;;6.88;95.58
77112;BME280;66064;50.226;14.344;2023-04-15T01:44:07;98079.75;;;6.87;96.03
77112;BME280;66064;50.226;14.344;2023-04-15T01:46:34;98076.22;;;6.88;95.85
77112;BME280;66064;50.226;14.344;2023-04-15T01:49:00;98080.66;;;6.90;95.99
77112;BME280;66064;50.226;14.344;2023-04-15T01:51:27;98085.06;;;6.96;95.42
77112;BME280;66064;50.226;14.344;2023-04-15T01:53:52;98082.41;;;6.90;95.53
77112;BME280;66064;50.226;14.344;2023-04-15T01:56:21;98078.00;;;6.92;95.46
77112;BME280;66064;50.226;14.344;2023-04-15T01:58:48;98090.34;;;6.90;95.65
77112;BME280;66064;50.226;14.344;2023-04-15T02:01:15;98087.69;;;6.87;95.54
77112;BME280;66064;50.226;14.344;2023-04-15T02:03:44;98091.22;;;6.90;95.88
77112;BME280;66064;50.226;14.344;2023-04-15T02:06:11;98093.00;;;6.91;95.39
77112;BME280;66064;50.226;14.344;2023-04-15T02:08:37;98098.28;;;6.94;95.63
77112;BME280;66064;50.226;14.344;2023-04-15T02:11:03;98093.88;;;6.90;95.77
77112;BME280;66064;50.226;14.344;2023-04-15T02:13:29;98107.97;;;6.94;95.47
77112;BME280;66064;50.226;14.344;2023-04-15T02:15:55;98105.31;;;6.89;95.68
77112;BME280;66064;50.226;14.344;2023-04-15T02:18:21;98110.59;;;6.86;95.87
77112;BME280;66064;50.226;14.344;2023-04-15T02:20:47;98110.63;;;6.92;95.62
77112;BME280;66064;50.226;14.344;2023-04-15T02:23:15;98107.09;;;6.92;96.24
77112;BME280;66064;50.226;14.344;2023-04-15T02:25:41;98115.88;;;6.86;96.42
77112;BME280;66064;50.226;14.344;2023-04-15T02:28:07;98095.63;;;6.87;97.07
77112;BME280;66064;50.226;14.344;2023-04-15T02:30:33;98109.72;;;6.86;96.81
77112;BME280;66064;50.226;14.344;2023-04-15T02:33:00;98108.84;;;6.88;96.66
77112;BME280;66064;50.226;14.344;2023-04-15T02:35:26;98108.84;;;6.88;96.53
77112;BME280;66064;50.226;14.344;2023-04-15T02:37:52;98110.59;;;6.86;96.64
77112;BME280;66064;50.226;14.344;2023-04-15T02:40:18;98112.38;;;6.93;96.23
77112;BME280;66064;50.226;14.344;2023-04-15T02:42:44;98115.03;;;6.99;95.92
77112;BME280;66064;50.226;14.344;2023-04-15T02:45:10;98103.56;;;6.94;96.28
77112;BME280;66064;50.226;14.344;2023-04-15T02:47:37;98102.69;;;6.89;96.32
77112;BME280;66064;50.226;14.344;2023-04-15T02:50:08;98107.97;;;6.92;95.69
77112;BME280;66064;50.226;14.344;2023-04-15T02:52:34;98109.75;;;6.93;96.32
77112;BME280;66064;50.226;14.344;2023-04-15T02:55:00;98112.38;;;6.93;95.91
77112;BME280;66064;50.226;14.344;2023-04-15T02:57:27;98121.19;;;6.98;95.87
77112;BME280;66064;50.226;14.344;2023-04-15T02:59:56;98119.44;;;6.94;96.15
77112;BME280;66064;50.226;14.344;2023-04-15T03:02:23;98117.66;;;6.90;96.83
77112;BME280;66064;50.226;14.344;2023-04-15T03:04:49;98123.84;;;6.91;96.51
77112;BME280;66064;50.226;14.344;2023-04-15T03:07:16;98116.78;;;6.90;96.70
77112;BME280;66064;50.226;14.344;2023-04-15T03:09:42;98115.03;;;6.90;96.80
77112;BME280;66064;50.226;14.344;2023-04-15T03:12:09;98111.47;;;6.87;96.84
77112;BME280;66064;50.226;14.344;2023-04-15T03:14:35;98115.00;;;6.89;96.64
77112;BME280;66064;50.226;14.344;2023-04-15T03:17:00;98116.78;;;6.90;97.08
77112;BME280;66064;50.226;14.344;2023-04-15T03:19:26;98107.09;;;6.90;96.83
77112;BME280;66064;50.226;14.344;2023-04-15T03:21:52;98107.97;;;6.88;97.14
77112;BME280;66064;50.226;14.344;2023-04-15T03:24:19;98115.91;;;6.92;96.49
77112;BME280;66064;50.226;14.344;2023-04-15T03:26:45;98105.31;;;6.86;97.02
77112;BME280;66064;50.226;14.344;2023-04-15T03:29:11;98101.78;;;6.87;96.90
77112;BME280;66064;50.226;14.344;2023-04-15T03:31:37;98119.44;;;6.91;97.08
77112;BME280;66064;50.226;14.344;2023-04-15T03:34:03;98118.53;;;6.89;96.91
77112;BME280;66064;50.226;14.344;2023-04-15T03:36:30;98129.13;;;6.91;97.46
77112;BME280;66064;50.226;14.344;2023-04-15T03:38:59;98126.50;;;6.95;96.55
77112;BME280;66064;50.226;14.344;2023-04-15T03:41:26;98127.38;;;6.90;96.82
77112;BME280;66064;50.226;14.344;2023-04-15T03:43:53;98117.66;;;6.90;96.59
77112;BME280;66064;50.226;14.344;2023-04-15T03:46:19;98121.19;;;6.92;96.71
77112;BME280;66064;50.226;14.344;2023-04-15T03:48:46;98120.31;;;6.99;96.85
77112;BME280;66064;50.226;14.344;2023-04-15T03:51:12;98116.78;;;6.94;96.73
77112;BME280;66064;50.226;14.344;2023-04-15T03:53:38;98133.56;;;6.98;96.52
77112;BME280;66064;50.226;14.344;2023-04-15T03:56:04;98130.00;;;7.00;97.09
77112;BME280;66064;50.226;14.344;2023-04-15T03:58:30;98130.91;;;7.07;96.61
77112;BME280;66064;50.226;14.344;2023-04-15T04:00:56;98122.97;;;7.06;96.53
77112;BME280;66064;50.226;14.344;2023-04-15T04:03:22;98134.44;;;7.08;96.32
77112;BME280;66064;50.226;14.344;2023-04-15T04:05:49;98147.66;;;7.17;96.25
77112;BME280;66064;50.226;14.344;2023-04-15T04:08:16;98139.75;;;7.12;96.38
77112;BME280;66064;50.226;14.344;2023-04-15T04:10:43;98151.19;;;7.05;93.36
77112;BME280;66064;50.226;14.344;2023-04-15T04:13:10;98156.47;;;7.00;92.67
77112;BME280;66064;50.226;14.344;2023-04-15T04:15:35;98158.22;;;6.91;92.32
77112;BME280;66064;50.226;14.344;2023-04-15T04:18:02;98159.94;;;6.84;91.67
77112;BME280;66064;50.226;14.344;2023-04-15T04:20:28;98159.03;;;6.64;90.78
77112;BME280;66064;50.226;14.344;2023-04-15T04:22:54;98175.69;;;6.51;91.14
77112;BME280;66064;50.226;14.344;2023-04-15T04:25:20;98179.22;;;6.47;91.44
77112;BME280;66064;50.226;14.344;2023-04-15T04:27:46;98180.97;;;6.45;91.67
77112;BME280;66064;50.226;14.344;2023-04-15T04:30:12;98181.81;;;6.38;91.35
77112;BME280;66064;50.226;14.344;2023-04-15T04:32:38;98185.31;;;6.32;91.95
77112;BME280;66064;50.226;14.344;2023-04-15T04:35:04;98187.94;;;6.27;91.51
77112;BME280;66064;50.226;14.344;2023-04-15T04:37:30;98187.91;;;6.24;91.52
77112;BME280;66064;50.226;14.344;2023-04-15T04:39:56;98197.59;;;6.24;92.07
77112;BME280;66064;50.226;14.344;2023-04-15T04:42:22;98202.84;;;6.19;91.21
77112;BME280;66064;50.226;14.344;2023-04-15T04:44:48;98209.03;;;6.21;92.24
77112;BME280;66064;50.226;14.344;2023-04-15T04:47:14;98207.25;;;6.20;92.23
77112;BME280;66064;50.226;14.344;2023-04-15T04:49:40;98208.13;;;6.16;91.29
77112;BME280;66064;50.226;14.344;2023-04-15T04:52:07;98216.03;;;6.13;89.35
77112;BME280;66064;50.226;14.344;2023-04-15T04:54:32;98230.97;;;6.08;89.34
77112;BME280;66064;50.226;14.344;2023-04-15T04:56:58;98217.72;;;5.99;88.69
77112;BME280;66064;50.226;14.344;2023-04-15T04:59:25;98227.34;;;5.94;89.87
77112;BME280;66064;50.226;14.344;2023-04-15T05:01:51;98229.97;;;5.94;89.63
77112;BME280;66064;50.226;14.344;2023-04-15T05:04:17;98232.59;;;5.89;89.07
77112;BME280;66064;50.226;14.344;2023-04-15T05:06:43;98246.66;;;5.88;89.67
77112;BME280;66064;50.226;14.344;2023-04-15T05:09:09;98245.78;;;5.91;89.09
77112;BME280;66064;50.226;14.344;2023-04-15T05:11:35;98254.63;;;5.94;90.00
77112;BME280;66064;50.226;14.344;2023-04-15T05:14:01;98248.50;;;5.97;89.31
77112;BME280;66064;50.226;14.344;2023-04-15T05:16:27;98251.97;;;5.91;89.59
77112;BME280;66064;50.226;14.344;2023-04-15T05:18:53;98257.31;;;5.97;89.61
77112;BME280;66064;50.226;14.344;2023-04-15T05:21:19;98259.03;;;5.94;88.68
77112;BME280;66064;50.226;14.344;2023-04-15T05:23:46;98252.81;;;5.89;87.64
77112;BME280;66064;50.226;14.344;2023-04-15T05:26:12;98258.94;;;5.88;88.51
77112;BME280;66064;50.226;14.344;2023-04-15T05:28:38;98262.44;;;5.85;88.35
77112;BME280;66064;50.226;14.344;2023-04-15T05:31:04;98269.50;;;5.88;87.21
77112;BME280;66064;50.226;14.344;2023-04-15T05:33:30;98266.03;;;5.90;87.72
77112;BME280;66064;50.226;14.344;2023-04-15T05:35:56;98268.75;;;5.98;87.07
77112;BME280;66064;50.226;14.344;2023-04-15T05:38:22;98274.16;;;6.16;87.04
77112;BME280;66064;50.226;14.344;2023-04-15T05:40:48;98279.50;;;6.27;86.71
77112;BME280;66064;50.226;14.344;2023-04-15T05:43:14;98278.56;;;6.14;85.55
77112;BME280;66064;50.226;14.344;2023-04-15T05:45:40;98283.88;;;6.23;86.58
77112;BME280;66064;50.226;14.344;2023-04-15T05:48:06;98291.88;;;6.34;85.71
77112;BME280;66064;50.226;14.344;2023-04-15T05:50:33;98290.88;;;6.18;85.58
77112;BME280;66064;50.226;14.344;2023-04-15T05:53:00;98290.06;;;6.25;85.77
77112;BME280;66064;50.226;14.344;2023-04-15T05:55:26;98294.56;;;6.39;85.42
77112;BME280;66064;50.226;14.344;2023-04-15T05:57:52;98302.47;;;6.32;84.62
77112;BME280;66064;50.226;14.344;2023-04-15T06:00:18;98309.47;;;6.27;84.29
77112;BME280;66064;50.226;14.344;2023-04-15T06:02:44;98309.47;;;6.33;83.78
77112;BME280;66064;50.226;14.344;2023-04-15T06:05:10;98306.88;;;6.37;83.47
77112;BME280;66064;50.226;14.344;2023-04-15T06:07:37;98313.09;;;6.45;83.90
77112;BME280;66064;50.226;14.344;2023-04-15T06:10:04;98310.50;;;6.52;83.69
77112;BME280;66064;50.226;14.344;2023-04-15T06:12:30;98303.44;;;6.53;83.39
77112;BME280;66064;50.226;14.344;2023-04-15T06:14:56;98304.41;;;6.67;82.66
77112;BME280;66064;50.226;14.344;2023-04-15T06:17:22;98318.50;;;6.63;83.13
77112;BME280;66064;50.226;14.344;2023-04-15T06:19:48;98318.56;;;6.74;82.16
77112;BME280;66064;50.226;14.344;2023-04-15T06:22:23;98317.00;;;7.17;80.51
77112;BME280;66064;50.226;14.344;2023-04-15T06:24:49;98315.31;;;7.37;78.14
77112;BME280;66064;50.226;14.344;2023-04-15T06:27:16;98311.91;;;8.37;73.89
77112;BME280;66064;50.226;14.344;2023-04-15T06:29:42;98307.44;;;8.75;71.71
77112;BME280;66064;50.226;14.344;2023-04-15T06:32:08;98310.13;;;8.36;70.96
77112;BME280;66064;50.226;14.344;2023-04-15T06:34:34;98310.09;;;8.13;73.10
77112;BME280;66064;50.226;14.344;2023-04-15T06:37:00;98318.91;;;7.83;74.79
77112;BME280;66064;50.226;14.344;2023-04-15T06:39:26;98317.16;;;7.62;75.28
77112;BME280;66064;50.226;14.344;2023-04-15T06:41:52;98326.81;;;7.51;75.89
77112;BME280;66064;50.226;14.344;2023-04-15T06:44:18;98327.59;;;7.21;75.53
77112;BME280;66064;50.226;14.344;2023-04-15T06:46:44;98329.28;;;7.06;77.29
77112;BME280;66064;50.226;14.344;2023-04-15T06:49:10;98328.41;;;7.05;77.57
77112;BME280;66064;50.226;14.344;2023-04-15T06:51:36;98327.59;;;7.14;78.23
77112;BME280;66064;50.226;14.344;2023-04-15T06:54:04;98337.28;;;7.21;77.77
77112;BME280;66064;50.226;14.344;2023-04-15T06:56:31;98332.88;;;7.14;77.83
77112;BME280;66064;50.226;14.344;2023-04-15T06:58:58;98339.03;;;7.16;76.93
77112;BME280;66064;50.226;14.344;2023-04-15T07:01:23;98347.94;;;7.39;77.09
77112;BME280;66064;50.226;14.344;2023-04-15T07:03:50;98346.97;;;7.19;75.38
77112;BME280;66064;50.226;14.344;2023-04-15T07:06:16;98346.09;;;7.14;78.17
77112;BME280;66064;50.226;14.344;2023-04-15T07:08:42;98339.84;;;7.02;75.68
77112;BME280;66064;50.226;14.344;2023-04-15T07:11:08;98348.56;;;6.80;74.49
77112;BME280;66064;50.226;14.344;2023-04-15T07:13:34;98350.38;;;6.87;74.29
77112;BME280;66064;50.226;14.344;2023-04-15T07:16:00;98360.16;;;7.07;73.73
77112;BME280;66064;50.226;14.344;2023-04-15T07:18:27;98366.38;;;7.18;72.66
77112;BME280;66064;50.226;14.344;2023-04-15T07:20:52;98368.13;;;7.11;72.68
77112;BME280;66064;50.226;14.344;2023-04-15T07:23:18;98365.50;;;7.14;73.21
77112;BME280;66064;50.226;14.344;2023-04-15T07:25:44;98376.16;;;7.29;73.06
77112;BME280;66064;50.226;14.344;2023-04-15T07:28:10;98372.63;;;7.35;71.72
77112;BME280;66064;50.226;14.344;2023-04-15T07:30:36;98374.41;;;7.39;72.08
77112;BME280;66064;50.226;14.344;2023-04-15T07:33:03;98383.34;;;7.68;71.28
77112;BME280;66064;50.226;14.344;2023-04-15T07:35:28;98380.75;;;7.99;69.69
77112;BME280;66064;50.226;14.344;2023-04-15T07:37:54;98383.38;;;7.84;69.56
77112;BME280;66064;50.226;14.344;2023-04-15T07:40:20;98387.75;;;7.72;69.77
77112;BME280;66064;50.226;14.344;2023-04-15T07:42:47;98385.97;;;7.67;70.36
77112;BME280;66064;50.226;14.344;2023-04-15T07:45:14;98379.88;;;7.91;70.96
77112;BME280;66064;50.226;14.344;2023-04-15T07:47:41;98391.31;;;7.78;69.17
77112;BME280;66064;50.226;14.344;2023-04-15T07:50:08;98384.25;;;7.86;70.56
77112;BME280;66064;50.226;14.344;2023-04-15T07:52:36;98386.03;;;7.78;69.75
77112;BME280;66064;50.226;14.344;2023-04-15T07:55:08;98384.31;;;8.10;69.40
77112;BME280;66064;50.226;14.344;2023-04-15T07:57:35;98387.88;;;8.46;70.03
77112;BME280;66064;50.226;14.344;2023-04-15T08:00:02;98394.91;;;8.31;68.69
77112;BME280;66064;50.226;14.344;2023-04-15T08:02:30;98392.25;;;8.08;69.91
77112;BME280;66064;50.226;14.344;2023-04-15T08:04:57;98397.59;;;8.25;69.26
77112;BME280;66064;50.226;14.344;2023-04-15T08:07:23;98392.22;;;7.90;69.56
77112;BME280;66064;50.226;14.344;2023-04-15T08:09:50;98406.34;;;7.91;69.99
77112;BME280;66064;50.226;14.344;2023-04-15T08:12:16;98407.16;;;7.67;68.68
77112;BME280;66064;50.226;14.344;2023-04-15T08:14:42;98394.88;;;7.89;70.76
77112;BME280;66064;50.226;14.344;2023-04-15T08:17:08;98405.47;;;7.98;68.17
77112;BME280;66064;50.226;14.344;2023-04-15T08:19:34;98409.94;;;8.10;67.25
77112;BME280;66064;50.226;14.344;2023-04-15T08:22:00;98420.59;;;8.52;67.04
77112;BME280;66064;50.226;14.344;2023-04-15T08:24:27;98408.22;;;8.37;66.88
77112;BME280;66064;50.226;14.344;2023-04-15T08:26:53;98415.28;;;8.32;66.37
77112;BME280;66064;50.226;14.344;2023-04-15T08:29:19;98426.78;;;8.40;67.65
77112;BME280;66064;50.226;14.344;2023-04-15T08:31:45;98421.50;;;8.44;67.11
77112;BME280;66064;50.226;14.344;2023-04-15T08:34:12;98424.09;;;8.24;66.78
77112;BME280;66064;50.226;14.344;2023-04-15T08:36:38;98425.84;;;8.10;65.73
77112;BME280;66064;50.226;14.344;2023-04-15T08:39:04;98428.53;;;8.35;66.10
77112;BME280;66064;50.226;14.344;2023-04-15T08:41:39;98438.19;;;8.18;65.92
77112;BME280;66064;50.226;14.344;2023-04-15T08:44:05;98429.38;;;8.22;66.13
77112;BME280;66064;50.226;14.344;2023-04-15T08:46:32;98469.13;;;8.22;66.41
77112;BME280;66064;50.226;14.344;2023-04-15T08:49:01;98434.66;;;8.16;66.73
77112;BME280;66064;50.226;14.344;2023-04-15T08:51:28;98436.44;;;8.08;66.36
77112;BME280;66064;50.226;14.344;2023-04-15T08:53:55;98438.25;;;8.47;65.60
77112;BME280;66064;50.226;14.344;2023-04-15T08:56:25;98439.19;;;8.60;65.68
77112;BME280;66064;50.226;14.344;2023-04-15T08:58:54;98443.59;;;8.55;64.16
77112;BME280;66064;50.226;14.344;2023-04-15T09:01:20;98438.28;;;8.91;63.76
77112;BME280;66064;50.226;14.344;2023-04-15T09:03:48;98438.25;;;9.05;62.36
77112;BME280;66064;50.226;14.344;2023-04-15T09:06:16;98431.19;;;8.84;62.04
77112;BME280;66064;50.226;14.344;2023-04-15T09:08:42;98435.59;;;9.06;62.99
77112;BME280;66064;50.226;14.344;2023-04-15T09:11:09;98434.63;;;9.39;61.87
77112;BME280;66064;50.226;14.344;2023-04-15T09:13:35;98436.28;;;9.63;60.04
77112;BME280;66064;50.226;14.344;2023-04-15T09:16:01;98436.47;;;9.05;61.68
77112;BME280;66064;50.226;14.344;2023-04-15T09:18:33;98439.94;;;9.29;61.11
77112;BME280;66064;50.226;14.344;2023-04-15T09:21:07;98436.41;;;9.28;61.97
77112;BME280;66064;50.226;14.344;2023-04-15T09:23:40;98441.75;;;9.25;62.39
77112;BME280;66064;50.226;14.344;2023-04-15T09:26:07;98452.41;;;8.84;63.04
77112;BME280;66064;50.226;14.344;2023-04-15T09:28:33;98453.31;;;8.57;64.10
77112;BME280;66064;50.226;14.344;2023-04-15T09:31:06;98450.66;;;8.53;64.58
77112;BME280;66064;50.226;14.344;2023-04-15T09:33:32;98463.00;;;8.63;65.67
77112;BME280;66064;50.226;14.344;2023-04-15T09:36:03;98455.97;;;8.92;64.67
77112;BME280;66064;50.226;14.344;2023-04-15T09:38:31;98457.69;;;8.98;64.51
77112;BME280;66064;50.226;14.344;2023-04-15T09:40:58;98455.06;;;8.66;63.89
77112;BME280;66064;50.226;14.344;2023-04-15T09:43:37;98467.44;;;8.49;65.04
77112;BME280;66064;50.226;14.344;2023-04-15T09:46:04;98463.03;;;8.54;65.10
77112;BME280;66064;50.226;14.344;2023-04-15T09:48:30;98476.28;;;8.72;65.65
77112;BME280;66064;50.226;14.344;2023-04-15T09:50:57;98481.59;;;8.52;65.95
77112;BME280;66064;50.226;14.344;2023-04-15T09:53:24;98478.03;;;8.52;65.49
77112;BME280;66064;50.226;14.344;2023-04-15T09:55:51;98472.75;;;8.52;65.95
77112;BME280;66064;50.226;14.344;2023-04-15T09:58:21;98481.59;;;8.69;65.26
77112;BME280;66064;50.226;14.344;2023-04-15T10:00:50;98474.50;;;8.65;66.66
77112;BME280;66064;50.226;14.344;2023-04-15T10:03:22;98478.94;;;8.54;65.94
77112;BME280;66064;50.226;14.344;2023-04-15T10:05:50;98472.75;;;8.55;65.94
77112;BME280;66064;50.226;14.344;2023-04-15T10:08:18;98479.84;;;8.74;65.81
77112;BME280;66064;50.226;14.344;2023-04-15T10:10:45;98477.16;;;8.97;66.15
77112;BME280;66064;50.226;14.344;2023-04-15T10:13:17;98478.06;;;8.91;65.20
77112;BME280;66064;50.226;14.344;2023-04-15T10:15:47;98475.41;;;8.90;62.93
77112;BME280;66064;50.226;14.344;2023-04-15T10:18:15;98485.13;;;9.04;64.15
77112;BME280;66064;50.226;14.344;2023-04-15T10:20:43;98483.34;;;8.94;62.84
77112;BME280;66064;50.226;14.344;2023-04-15T10:23:10;98483.34;;;8.94;63.35
77112;BME280;66064;50.226;14.344;2023-04-15T10:25:37;98486.88;;;8.93;63.62
77112;BME280;66064;50.226;14.344;2023-04-15T10:28:05;98485.13;;;8.98;63.53
77112;BME280;66064;50.226;14.344;2023-04-15T10:30:32;98486.00;;;9.12;63.73
77112;BME280;66064;50.226;14.344;2023-04-15T10:33:00;98485.09;;;9.10;64.31
77112;BME280;66064;50.226;14.344;2023-04-15T10:35:28;98495.66;;;9.50;62.02
77112;BME280;66064;50.226;14.344;2023-04-15T10:37:55;98493.03;;;9.35;61.37
77112;BME280;66064;50.226;14.344;2023-04-15T10:40:30;98493.88;;;9.54;62.94
77112;BME280;66064;50.226;14.344;2023-04-15T10:42:58;98504.38;;;9.92;61.13
77112;BME280;66064;50.226;14.344;2023-04-15T10:45:34;98502.66;;;9.78;61.68
77112;BME280;66064;50.226;14.344;2023-04-15T10:48:03;98504.41;;;9.89;61.80
77112;BME280;66064;50.226;14.344;2023-04-15T10:52:27;98502.63;;;9.85;59.98
77112;BME280;66064;50.226;14.344;2023-04-15T10:55:21;98506.06;;;10.11;60.73
77112;BME280;66064;50.226;14.344;2023-04-15T10:57:53;98515.84;;;10.06;59.23
77112;BME280;66064;50.226;14.344;2023-04-15T11:00:24;98517.78;;;9.55;60.11
77112;BME280;66064;50.226;14.344;2023-04-15T11:02:55;98524.00;;;9.48;61.07
77112;BME280;66064;50.226;14.344;2023-04-15T11:07:07;98518.72;;;9.27;63.23
77112;BME280;66064;50.226;14.344;2023-04-15T11:09:33;98532.84;;;9.45;63.29
77112;BME280;66064;50.226;14.344;2023-04-15T11:12:09;98532.81;;;9.62;63.91
77112;BME280;66064;50.226;14.344;2023-04-15T11:14:38;98534.53;;;9.81;62.21
77112;BME280;66064;50.226;14.344;2023-04-15T11:17:04;98531.00;;;9.82;64.31
77112;BME280;66064;50.226;14.344;2023-04-15T11:19:37;98537.13;;;9.94;62.88
77112;BME280;66064;50.226;14.344;2023-04-15T11:22:10;98539.72;;;10.18;62.35
77112;BME280;66064;50.226;14.344;2023-04-15T11:24:46;98531.72;;;10.26;60.62
77112;BME280;66064;50.226;14.344;2023-04-15T11:27:22;98539.50;;;10.61;59.64
77112;BME280;66064;50.226;14.344;2023-04-15T11:29:48;98534.03;;;10.85;59.75
77112;BME280;66064;50.226;14.344;2023-04-15T11:32:14;98533.38;;;11.58;57.97
77112;BME280;66064;50.226;14.344;2023-04-15T11:34:40;98532.28;;;11.83;55.64
77112;BME280;66064;50.226;14.344;2023-04-15T11:37:06;98531.41;;;11.81;55.79
77112;BME280;66064;50.226;14.344;2023-04-15T11:39:32;98539.91;;;12.14;56.05
77112;BME280;66064;50.226;14.344;2023-04-15T11:41:58;98546.09;;;12.16;55.58
77112;BME280;66064;50.226;14.344;2023-04-15T11:44:24;98539.94;;;12.11;55.40
77112;BME280;66064;50.226;14.344;2023-04-15T11:46:50;98537.66;;;11.73;56.77
77112;BME280;66064;50.226;14.344;2023-04-15T11:49:27;98547.25;;;11.94;58.01
77112;BME280;66064;50.226;14.344;2023-04-15T11:51:53;98542.00;;;11.86;55.21
77112;BME280;66064;50.226;14.344;2023-04-15T11:54:19;98545.47;;;11.93;56.20
77112;BME280;66064;50.226;14.344;2023-04-15T11:56:49;98555.19;;;12.00;55.11
77112;BME280;66064;50.226;14.344;2023-04-15T11:59:16;98549.03;;;11.91;54.40
77112;BME280;66064;50.226;14.344;2023-04-15T12:01:42;98554.03;;;12.19;54.72
77112;BME280;66064;50.226;14.344;2023-04-15T12:04:12;98548.78;;;12.16;54.80
77112;BME280;66064;50.226;14.344;2023-04-15T12:06:38;98543.59;;;12.68;53.54
77112;BME280;66064;50.226;14.344;2023-04-15T12:09:12;98548.88;;;12.74;51.14
77112;BME280;66064;50.226;14.344;2023-04-15T12:11:48;98541.25;;;13.05;48.47
77112;BME280;66064;50.226;14.344;2023-04-15T12:17:02;98557.03;;;12.64;51.51
77112;BME280;66064;50.226;14.344;2023-04-15T12:19:34;98558.81;;;12.65;51.12
77112;BME280;66064;50.226;14.344;2023-04-15T12:22:02;98562.59;;;12.48;51.43
77112;BME280;66064;50.226;14.344;2023-04-15T12:24:33;98564.78;;;12.16;52.62
77112;BME280;66064;50.226;14.344;2023-04-15T12:27:02;98567.00;;;11.71;53.34
77112;BME280;66064;50.226;14.344;2023-04-15T12:29:29;98566.38;;;11.46;53.70
77112;BME280;66064;50.226;14.344;2023-04-15T12:32:13;98578.03;;;11.35;56.12
77112;BME280;66064;50.226;14.344;2023-04-15T12:34:42;98572.56;;;11.48;57.52
77112;BME280;66064;50.226;14.344;2023-04-15T12:37:10;98571.72;;;11.42;58.38
77112;BME280;66064;50.226;14.344;2023-04-15T12:39:38;98579.06;;;11.17;58.49
77112;BME280;66064;50.226;14.344;2023-04-15T12:42:05;98580.84;;;11.15;59.35
77112;BME280;66064;50.226;14.344;2023-04-15T12:44:32;98579.09;;;11.06;60.25
77112;BME280;66064;50.226;14.344;2023-04-15T12:46:58;98582.66;;;11.07;59.80
77112;BME280;66064;50.226;14.344;2023-04-15T12:49:27;98590.63;;;11.11;60.75
77112;BME280;66064;50.226;14.344;2023-04-15T12:51:56;98587.88;;;11.22;62.14
77112;BME280;66064;50.226;14.344;2023-04-15T12:54:24;98594.06;;;11.22;59.57
77112;BME280;66064;50.226;14.344;2023-04-15T12:56:51;98589.59;;;11.29;58.13
77112;BME280;66064;50.226;14.344;2023-04-15T12:59:19;98594.16;;;11.13;57.41
77112;BME280;66064;50.226;14.344;2023-04-15T13:01:45;98602.91;;;11.28;57.89
77112;BME280;66064;50.226;14.344;2023-04-15T13:04:12;98607.38;;;11.27;59.17
77112;BME280;66064;50.226;14.344;2023-04-15T13:06:38;98606.56;;;11.19;58.78